createdAt,value
2019-02-02T00:01:42.993Z,27.80
2019-02-02T00:04:10.907Z,25.82
2019-02-02T00:06:38.825Z,27.50
2019-02-02T00:09:08.038Z,26.87
2019-02-02T00:11:36.130Z,27.23
2019-02-02T00:14:05.114Z,27.70
2019-02-02T00:16:33.229Z,26.03
2019-02-02T00:19:01.292Z,28.47
2019-02-02T00:21:29.255Z,27.40
2019-02-02T00:23:57.304Z,27.37
2019-02-02T00:26:25.266Z,27.20
2019-02-02T00:28:53.341Z,27.20
2019-02-02T00:31:21.247Z,29.80
2019-02-02T00:33:49.827Z,26.95
2019-02-02T00:36:17.736Z,25.67
2019-02-02T00:38:46.657Z,27.40
2019-02-02T00:41:14.575Z,28.50
2019-02-02T00:43:42.449Z,32.13
2019-02-02T00:46:12.426Z,30.50
2019-02-02T00:48:40.329Z,32.08
2019-02-02T00:51:08.231Z,28.60
2019-02-02T00:53:36.958Z,30.00
2019-02-02T00:56:05.205Z,33.38
2019-02-02T00:58:33.129Z,35.88
2019-02-02T01:01:01.103Z,38.75
2019-02-02T01:03:29.276Z,37.37
2019-02-02T01:05:57.270Z,31.73
2019-02-02T01:08:25.333Z,30.30
2019-02-02T01:10:53.384Z,24.67
2019-02-02T01:13:21.602Z,25.57
2019-02-02T01:15:49.527Z,24.97
2019-02-02T01:18:17.542Z,23.80
2019-02-02T01:20:45.526Z,23.80
2019-02-02T01:23:13.607Z,23.50
2019-02-02T01:25:42.055Z,23.40
2019-02-02T01:28:10.180Z,23.97
2019-02-02T01:30:38.181Z,24.00
2019-02-02T01:33:06.258Z,22.48
2019-02-02T01:35:34.142Z,23.20
2019-02-02T01:38:02.337Z,21.87
2019-02-02T01:40:30.288Z,21.55
2019-02-02T01:42:58.399Z,20.70
2019-02-02T01:45:26.638Z,21.90
2019-02-02T01:47:55.557Z,21.87
2019-02-02T01:50:24.982Z,22.65
2019-02-02T01:52:53.103Z,21.70
2019-02-02T01:55:21.312Z,23.00
2019-02-02T01:57:49.364Z,23.20
2019-02-02T02:00:22.953Z,22.20
2019-02-02T02:02:53.443Z,22.63
2019-02-02T02:05:21.502Z,21.47
2019-02-02T02:07:49.982Z,22.23
2019-02-02T02:10:18.469Z,20.83
2019-02-02T02:12:46.417Z,22.93
2019-02-02T02:15:15.432Z,21.83
2019-02-02T02:17:44.345Z,22.27
2019-02-02T02:20:13.139Z,20.60
2019-02-02T02:22:41.615Z,21.65
2019-02-02T02:25:12.109Z,20.35
2019-02-02T02:27:40.177Z,21.50
2019-02-02T02:30:10.809Z,21.00
2019-02-02T02:32:38.729Z,23.30
2019-02-02T02:35:06.911Z,22.80
2019-02-02T02:37:34.915Z,23.97
2019-02-02T02:40:03.798Z,23.90
2019-02-02T02:42:31.772Z,22.87
2019-02-02T02:44:59.620Z,22.80
2019-02-02T02:47:27.548Z,23.52
2019-02-02T02:49:55.516Z,24.70
2019-02-02T02:52:23.549Z,24.00
2019-02-02T02:54:51.506Z,25.32
2019-02-02T02:57:19.302Z,24.83
2019-02-02T02:59:47.188Z,26.77
2019-02-02T03:02:15.209Z,25.80
2019-02-02T03:04:43.106Z,25.12
2019-02-02T03:07:11.134Z,23.30
2019-02-02T03:09:39.016Z,24.30
2019-02-02T03:12:06.977Z,24.82
2019-02-02T03:14:34.946Z,24.53
2019-02-02T03:17:03.555Z,23.92
2019-02-02T03:19:31.900Z,22.70
2019-02-02T03:21:59.863Z,24.30
2019-02-02T03:24:27.774Z,22.48
2019-02-02T03:26:55.619Z,20.87
2019-02-02T03:29:23.540Z,20.50
2019-02-02T03:31:52.175Z,22.10
2019-02-02T03:34:20.196Z,20.37
2019-02-02T03:36:47.994Z,16.82
2019-02-02T03:39:15.885Z,17.90
2019-02-02T03:41:43.832Z,16.87
2019-02-02T03:44:11.737Z,16.10
2019-02-02T03:46:39.674Z,16.25
2019-02-02T03:49:07.598Z,15.68
2019-02-02T03:51:35.627Z,16.35
2019-02-02T03:54:08.924Z,15.50
2019-02-02T03:56:33.613Z,15.20
2019-02-02T03:59:06.562Z,15.03
2019-02-02T04:01:31.488Z,14.03
2019-02-02T04:03:59.587Z,13.83
2019-02-02T04:06:27.483Z,14.68
2019-02-02T04:08:55.460Z,13.90
2019-02-02T04:11:23.505Z,13.10
2019-02-02T04:13:51.372Z,14.20
2019-02-02T04:16:19.340Z,13.50
2019-02-02T04:18:47.132Z,12.37
2019-02-02T04:21:15.186Z,12.90
2019-02-02T04:23:44.006Z,12.17
2019-02-02T04:26:11.951Z,14.10
2019-02-02T04:28:39.900Z,13.07
2019-02-02T04:31:07.803Z,14.40
2019-02-02T04:33:35.572Z,14.17
2019-02-02T04:36:04.016Z,15.03
2019-02-02T04:38:31.891Z,15.88
2019-02-02T04:40:59.982Z,17.40
2019-02-02T04:43:27.745Z,16.33
2019-02-02T04:45:55.516Z,16.23
2019-02-02T04:48:23.656Z,16.43
2019-02-02T04:50:51.517Z,16.03
2019-02-02T04:53:20.660Z,16.03
2019-02-02T04:55:48.649Z,15.53
2019-02-02T04:58:16.689Z,16.10
2019-02-02T05:00:45.166Z,16.83
2019-02-02T05:03:12.918Z,16.77
2019-02-02T05:05:40.896Z,18.53
2019-02-02T05:08:09.501Z,26.10
2019-02-02T05:10:37.589Z,23.57
2019-02-02T05:13:05.589Z,21.40
2019-02-02T05:15:33.379Z,20.03
2019-02-02T05:18:01.363Z,19.67
2019-02-02T05:20:29.404Z,18.57
2019-02-02T05:22:57.468Z,18.63
2019-02-02T05:25:25.468Z,18.87
2019-02-02T05:27:53.504Z,21.50
2019-02-02T05:30:26.634Z,26.23
2019-02-02T05:32:55.202Z,24.90
2019-02-02T05:35:23.215Z,22.67
2019-02-02T05:37:51.332Z,22.53
2019-02-02T05:40:22.278Z,24.73
2019-02-02T05:42:50.367Z,22.80
2019-02-02T05:45:19.569Z,21.13
2019-02-02T05:47:48.072Z,21.27
2019-02-02T05:50:17.914Z,20.10
2019-02-02T05:52:46.043Z,18.82
2019-02-02T05:55:15.294Z,17.97
2019-02-02T05:57:43.460Z,19.77
2019-02-02T06:00:16.241Z,19.73
2019-02-02T06:02:44.354Z,19.17
2019-02-02T06:05:12.296Z,20.60
2019-02-02T06:07:40.600Z,20.73
2019-02-02T06:10:10.723Z,20.30
2019-02-02T06:12:38.618Z,20.97
2019-02-02T06:15:06.942Z,31.63
2019-02-02T06:17:35.113Z,35.73
2019-02-02T06:20:04.489Z,28.23
2019-02-02T06:22:32.603Z,20.53
2019-02-02T06:25:00.593Z,16.70
2019-02-02T06:27:28.524Z,15.67
2019-02-02T06:30:04.016Z,15.60
2019-02-02T06:32:26.120Z,17.23
2019-02-02T06:34:54.065Z,27.33
2019-02-02T06:37:22.666Z,21.23
2019-02-02T06:39:50.630Z,19.73
2019-02-02T06:42:18.629Z,18.37
2019-02-02T06:44:46.644Z,16.73
2019-02-02T06:47:14.625Z,16.83
2019-02-02T06:49:42.538Z,16.93
2019-02-02T06:52:10.515Z,18.13
2019-02-02T06:54:38.494Z,17.20
2019-02-02T06:57:06.478Z,17.27
2019-02-02T06:59:34.447Z,17.33
2019-02-02T07:02:02.467Z,17.30
2019-02-02T07:04:30.576Z,16.70
2019-02-02T07:06:58.732Z,16.93
2019-02-02T07:09:26.768Z,17.87
2019-02-02T07:11:54.814Z,21.13
2019-02-02T07:14:22.732Z,19.25
2019-02-02T07:16:50.714Z,19.23
2019-02-02T07:19:18.588Z,17.40
2019-02-02T07:21:47.715Z,17.30
2019-02-02T07:24:15.700Z,17.37
2019-02-02T07:26:43.716Z,19.90
2019-02-02T07:29:11.684Z,23.77
2019-02-02T07:31:39.701Z,25.53
2019-02-02T07:34:07.757Z,27.10
2019-02-02T07:36:36.071Z,24.20
2019-02-02T07:39:06.653Z,22.30
2019-02-02T07:41:34.617Z,23.30
2019-02-02T07:44:03.348Z,27.00
2019-02-02T07:46:31.599Z,75.90
2019-02-02T07:48:59.951Z,84.70
2019-02-02T07:51:28.115Z,60.30
2019-02-02T07:53:56.588Z,64.90
2019-02-02T07:56:24.561Z,54.60
2019-02-02T07:58:53.281Z,76.62
2019-02-02T08:01:21.388Z,76.50
2019-02-02T08:03:49.337Z,60.40
2019-02-02T08:06:17.509Z,53.40
2019-02-02T08:08:45.460Z,51.60
2019-02-02T08:11:13.484Z,47.62
2019-02-02T08:13:41.459Z,46.42
2019-02-02T08:16:11.547Z,33.93
2019-02-02T08:18:39.456Z,37.17
2019-02-02T08:21:09.479Z,38.05
2019-02-02T08:23:37.446Z,37.90
2019-02-02T08:26:05.507Z,38.40
2019-02-02T08:28:33.583Z,38.40
2019-02-02T08:31:01.628Z,34.97
2019-02-02T08:33:29.498Z,33.57
2019-02-02T08:35:57.505Z,48.20
2019-02-02T08:38:25.318Z,49.60
2019-02-02T08:40:53.326Z,32.77
2019-02-02T08:43:21.408Z,30.67
2019-02-02T08:45:49.414Z,24.33
2019-02-02T08:48:17.432Z,29.40
2019-02-02T08:50:45.352Z,32.57
2019-02-02T08:53:13.243Z,32.10
2019-02-02T08:55:41.259Z,29.07
2019-02-02T08:58:09.172Z,27.97
2019-02-02T09:00:37.257Z,28.03
2019-02-02T09:03:05.557Z,21.63
2019-02-02T09:05:34.381Z,19.77
2019-02-02T09:08:02.242Z,17.87
2019-02-02T09:10:30.333Z,27.03
2019-02-02T09:12:58.419Z,32.83
2019-02-02T09:15:27.469Z,36.00
2019-02-02T09:17:55.529Z,30.87
2019-02-02T09:20:23.549Z,28.38
2019-02-02T09:23:02.657Z,24.73
2019-02-02T09:25:21.581Z,21.27
2019-02-02T09:27:50.645Z,21.50
2019-02-02T09:30:23.625Z,17.87
2019-02-02T09:32:51.521Z,18.83
2019-02-02T09:35:19.839Z,17.33
2019-02-02T09:37:47.915Z,15.40
2019-02-02T09:40:16.920Z,14.33
2019-02-02T09:42:44.891Z,13.07
2019-02-02T09:45:14.938Z,12.33
2019-02-02T09:47:42.869Z,13.87
2019-02-02T09:50:12.959Z,12.67
2019-02-02T09:52:40.953Z,14.10
2019-02-02T09:55:11.477Z,14.50
2019-02-02T09:57:39.474Z,14.33
2019-02-02T10:00:11.817Z,14.30
2019-02-02T10:02:39.724Z,13.60
2019-02-02T10:05:07.835Z,16.97
2019-02-02T10:07:35.769Z,14.57
2019-02-02T10:10:05.488Z,11.60
2019-02-02T10:12:33.429Z,12.13
2019-02-02T10:15:01.760Z,11.73
2019-02-02T10:17:29.647Z,10.53
2019-02-02T10:19:57.462Z,10.93
2019-02-02T10:22:25.430Z,12.27
2019-02-02T10:24:53.361Z,11.87
2019-02-02T10:27:21.271Z,12.27
2019-02-02T10:29:49.146Z,11.30
2019-02-02T10:32:17.656Z,11.00
2019-02-02T10:34:45.743Z,9.93
2019-02-02T10:37:14.006Z,8.87
2019-02-02T10:39:41.837Z,9.43
2019-02-02T10:42:11.145Z,9.87
2019-02-02T10:44:39.101Z,10.13
2019-02-02T10:47:07.244Z,10.47
2019-02-02T10:49:35.049Z,10.50
2019-02-02T10:52:17.337Z,8.57
2019-02-02T10:54:45.338Z,8.50
2019-02-02T10:57:13.233Z,8.57
2019-02-02T10:59:41.829Z,8.87
2019-02-02T11:02:09.675Z,7.93
2019-02-02T11:04:37.806Z,8.17
2019-02-02T11:07:05.962Z,7.67
2019-02-02T11:09:34.692Z,7.67
2019-02-02T11:12:02.788Z,7.37
2019-02-02T11:14:31.134Z,8.20
2019-02-02T11:16:59.838Z,9.17
2019-02-02T11:19:27.719Z,10.07
2019-02-02T11:21:55.814Z,9.50
2019-02-02T11:24:23.790Z,15.63
2019-02-02T11:26:51.739Z,13.80
2019-02-02T11:29:20.289Z,12.27
2019-02-02T11:31:48.285Z,14.47
2019-02-02T11:34:16.215Z,10.47
2019-02-02T11:36:44.293Z,11.47
2019-02-02T11:39:12.079Z,11.47
2019-02-02T11:41:40.132Z,12.20
2019-02-02T11:44:08.088Z,10.03
2019-02-02T11:46:36.083Z,10.00
2019-02-02T11:49:04.123Z,10.40
2019-02-02T11:51:32.207Z,9.93
2019-02-02T11:54:00.000Z,9.67
2019-02-02T11:56:27.909Z,8.60
2019-02-02T11:58:55.872Z,9.70
2019-02-02T12:01:23.849Z,9.37
2019-02-02T12:03:51.739Z,9.43
2019-02-02T12:06:20.331Z,8.83
2019-02-02T12:08:49.324Z,9.00
2019-02-02T12:11:17.702Z,7.90
2019-02-02T12:13:45.534Z,19.83
2019-02-02T12:16:13.421Z,20.53
2019-02-02T12:18:41.327Z,21.83
2019-02-02T12:21:09.215Z,28.70
2019-02-02T12:23:37.126Z,13.83
2019-02-02T12:26:05.174Z,21.73
2019-02-02T12:28:33.038Z,38.60
2019-02-02T12:31:01.685Z,31.17
2019-02-02T12:33:29.669Z,39.00
2019-02-02T12:35:57.566Z,70.90
2019-02-02T12:38:25.447Z,29.23
2019-02-02T12:40:53.283Z,109.13
2019-02-02T12:43:21.290Z,26.93
2019-02-02T12:45:52.112Z,31.67
2019-02-02T12:48:20.249Z,54.80
2019-02-02T12:50:48.306Z,38.60
2019-02-02T12:53:16.482Z,10.90
2019-02-02T12:55:44.393Z,14.20
2019-02-02T12:58:12.870Z,23.73
2019-02-02T13:00:44.032Z,8.80
2019-02-02T13:03:10.959Z,8.80
2019-02-02T13:05:39.343Z,8.60
2019-02-02T13:08:07.739Z,8.10
2019-02-02T13:10:35.948Z,9.07
2019-02-02T13:13:04.146Z,8.87
2019-02-02T13:15:32.188Z,10.17
2019-02-02T13:18:00.065Z,10.33
2019-02-02T13:20:28.241Z,10.77
2019-02-02T13:22:56.216Z,11.20
2019-02-02T13:25:24.856Z,10.70
2019-02-02T13:27:52.894Z,11.37
2019-02-02T13:30:23.732Z,10.87
2019-02-02T13:32:51.858Z,12.00
2019-02-02T13:35:19.946Z,9.67
2019-02-02T13:37:48.059Z,13.60
2019-02-02T13:40:17.510Z,42.83
2019-02-02T13:42:45.445Z,88.00
2019-02-02T13:45:14.302Z,106.97
2019-02-02T13:47:42.314Z,40.03
2019-02-02T13:50:12.524Z,39.17
2019-02-02T13:52:40.536Z,15.80
2019-02-02T13:55:08.665Z,10.97
2019-02-02T13:57:36.717Z,11.10
2019-02-02T14:00:06.913Z,8.67
2019-02-02T14:02:34.866Z,11.00
2019-02-02T14:05:03.521Z,7.50
2019-02-02T14:07:31.525Z,7.20
2019-02-02T14:09:59.332Z,60.57
2019-02-02T14:12:27.422Z,9.93
2019-02-02T14:14:55.223Z,7.37
2019-02-02T14:17:23.229Z,7.13
2019-02-02T14:19:51.192Z,7.70
2019-02-02T14:22:20.238Z,7.77
2019-02-02T14:24:48.770Z,14.57
2019-02-02T14:27:16.628Z,9.93
2019-02-02T14:29:44.618Z,8.67
2019-02-02T14:32:13.415Z,6.00
2019-02-02T14:34:41.401Z,4.93
2019-02-02T14:37:09.365Z,4.97
2019-02-02T14:39:37.260Z,5.43
2019-02-02T14:42:05.307Z,5.27
2019-02-02T14:44:34.026Z,5.37
2019-02-02T14:47:02.053Z,5.30
2019-02-02T14:49:30.362Z,6.47
2019-02-02T14:51:58.298Z,5.87
2019-02-02T14:54:26.126Z,5.23
2019-02-02T14:56:54.807Z,4.87
2019-02-02T14:59:22.565Z,5.10
2019-02-02T15:01:53.204Z,4.70
2019-02-02T15:04:21.111Z,5.30
2019-02-02T15:06:48.934Z,5.30
2019-02-02T15:09:16.913Z,4.80
2019-02-02T15:11:44.780Z,4.73
2019-02-02T15:14:12.677Z,5.20
2019-02-02T15:16:41.954Z,5.17
2019-02-02T15:19:09.869Z,5.70
2019-02-02T15:21:37.860Z,4.93
2019-02-02T15:24:06.060Z,5.03
2019-02-02T15:26:33.955Z,4.77
2019-02-02T15:29:01.996Z,5.00
2019-02-02T15:31:29.935Z,5.10
2019-02-02T15:33:57.941Z,5.47
2019-02-02T15:36:25.862Z,4.87
2019-02-02T15:38:53.944Z,5.53
2019-02-02T15:41:22.173Z,6.17
2019-02-02T15:43:50.182Z,5.47
2019-02-02T15:46:18.020Z,5.50
2019-02-02T15:48:45.906Z,6.00
2019-02-02T15:51:13.882Z,5.53
2019-02-02T15:53:41.778Z,6.43
2019-02-02T15:56:10.818Z,5.93
2019-02-02T15:58:38.788Z,5.80
2019-02-02T16:01:06.879Z,6.00
2019-02-02T16:03:49.603Z,5.63
2019-02-02T16:06:14.788Z,6.27
2019-02-02T16:08:42.863Z,6.97
2019-02-02T16:11:10.809Z,10.60
2019-02-02T16:13:38.594Z,9.13
2019-02-02T16:16:06.599Z,8.70
2019-02-02T16:18:34.568Z,8.23
2019-02-02T16:21:02.637Z,7.80
2019-02-02T16:23:30.530Z,7.77
2019-02-02T16:25:58.623Z,8.53
2019-02-02T16:28:26.553Z,9.83
2019-02-02T16:30:54.442Z,12.67
2019-02-02T16:33:22.642Z,11.77
2019-02-02T16:35:50.705Z,21.27
2019-02-02T16:38:18.763Z,13.50
2019-02-02T16:40:46.656Z,10.23
2019-02-02T16:43:15.767Z,10.57
2019-02-02T16:45:43.683Z,12.10
2019-02-02T16:48:11.712Z,26.20
2019-02-02T16:50:40.197Z,41.77
2019-02-02T16:53:08.199Z,15.43
2019-02-02T16:55:36.272Z,14.37
2019-02-02T16:58:05.845Z,16.03
2019-02-02T17:00:34.353Z,16.00
2019-02-02T17:03:02.537Z,16.63
2019-02-02T17:05:39.092Z,15.93
2019-02-02T17:08:07.156Z,16.90
2019-02-02T17:10:36.422Z,17.77
2019-02-02T17:13:05.641Z,20.03
2019-02-02T17:15:34.195Z,21.10
2019-02-02T17:18:02.095Z,23.63
2019-02-02T17:20:37.840Z,25.50
2019-02-02T17:23:05.826Z,26.33
2019-02-02T17:25:33.978Z,26.93
2019-02-02T17:28:02.076Z,27.83
2019-02-02T17:30:30.032Z,28.77
2019-02-02T17:33:00.252Z,31.23
2019-02-02T17:35:28.216Z,30.90
2019-02-02T17:37:56.077Z,31.57
2019-02-02T17:40:25.682Z,31.40
2019-02-02T17:42:53.859Z,33.47
2019-02-02T17:45:21.964Z,31.77
2019-02-02T17:47:50.469Z,33.70
2019-02-02T17:50:19.835Z,33.57
2019-02-02T17:52:48.886Z,34.00
2019-02-02T17:55:17.620Z,33.90
2019-02-02T17:57:45.769Z,35.03
2019-02-02T18:00:16.077Z,35.23
2019-02-02T18:02:44.010Z,35.70
2019-02-02T18:05:12.612Z,35.73
2019-02-02T18:07:40.413Z,35.63
2019-02-02T18:10:10.759Z,35.87
2019-02-02T18:12:38.623Z,34.27
2019-02-02T18:15:08.448Z,34.57
2019-02-02T18:17:36.311Z,35.63
2019-02-02T18:20:06.953Z,33.67
2019-02-02T18:22:34.934Z,35.13
2019-02-02T18:25:03.481Z,34.60
2019-02-02T18:27:32.208Z,27.90
2019-02-02T18:30:00.383Z,29.63
2019-02-02T18:32:28.310Z,37.40
2019-02-02T18:34:56.390Z,40.27
2019-02-02T18:37:24.651Z,46.07
2019-02-02T18:39:52.598Z,43.93
2019-02-02T18:42:21.310Z,40.90
2019-02-02T18:44:49.869Z,42.27
2019-02-02T18:47:18.717Z,37.43
2019-02-02T18:49:46.758Z,44.90
2019-02-02T18:52:16.459Z,43.03
2019-02-02T18:54:44.456Z,42.23
2019-02-02T18:57:12.424Z,39.10
2019-02-02T18:59:40.203Z,43.03
2019-02-02T19:02:08.201Z,65.30
2019-02-02T19:04:36.283Z,41.77
2019-02-02T19:07:04.303Z,38.47
2019-02-02T19:09:32.431Z,32.73
2019-02-02T19:12:00.746Z,34.37
2019-02-02T19:14:28.733Z,31.77
2019-02-02T19:17:01.224Z,30.57
2019-02-02T19:19:26.416Z,30.70
2019-02-02T19:21:54.402Z,30.70
2019-02-02T19:24:22.238Z,31.87
2019-02-02T19:26:50.029Z,33.17
2019-02-02T19:29:18.045Z,32.67
2019-02-02T19:31:46.380Z,33.80
2019-02-02T19:34:18.181Z,39.27
2019-02-02T19:36:45.544Z,72.90
2019-02-02T19:39:13.518Z,59.23
2019-02-02T19:41:41.866Z,103.87
2019-02-02T19:44:15.633Z,48.00
2019-02-02T19:46:43.605Z,40.20
2019-02-02T19:49:12.051Z,38.63
2019-02-02T19:51:39.918Z,46.17
2019-02-02T19:54:07.886Z,39.90
2019-02-02T19:56:35.885Z,36.03
2019-02-02T19:59:04.069Z,35.50
2019-02-02T20:01:31.996Z,39.17
2019-02-02T20:04:00.072Z,36.23
2019-02-02T20:06:28.209Z,37.07
2019-02-02T20:08:56.113Z,35.03
2019-02-02T20:11:24.079Z,35.67
2019-02-02T20:13:52.002Z,36.23
2019-02-02T20:16:19.887Z,39.70
2019-02-02T20:18:47.855Z,40.93
2019-02-02T20:21:16.054Z,39.83
2019-02-02T20:23:44.215Z,38.33
2019-02-02T20:26:12.287Z,38.00
2019-02-02T20:28:42.382Z,39.53
2019-02-02T20:31:10.264Z,39.73
2019-02-02T20:33:38.200Z,37.03
2019-02-02T20:36:06.456Z,31.43
2019-02-02T20:38:34.751Z,32.47
2019-02-02T20:41:02.780Z,32.87
2019-02-02T20:43:30.982Z,33.83
2019-02-02T20:46:07.881Z,34.23
2019-02-02T20:48:35.879Z,36.03
2019-02-02T20:51:04.111Z,32.97
2019-02-02T20:53:32.330Z,33.97
2019-02-02T20:56:00.572Z,33.50
2019-02-02T20:58:28.423Z,34.40
2019-02-02T21:00:56.458Z,34.83
2019-02-02T21:03:24.499Z,36.47
2019-02-02T21:05:52.853Z,34.10
2019-02-02T21:08:21.066Z,34.83
2019-02-02T21:10:49.143Z,35.33
2019-02-02T21:13:17.017Z,38.23
2019-02-02T21:15:45.035Z,63.80
2019-02-02T21:18:13.347Z,58.23
2019-02-02T21:20:42.424Z,57.57
2019-02-02T21:23:10.634Z,53.47
2019-02-02T21:25:38.971Z,60.77
2019-02-02T21:28:07.396Z,61.50
2019-02-02T21:30:35.780Z,68.03
2019-02-02T21:33:04.871Z,77.13
2019-02-02T21:35:32.795Z,65.52
2019-02-02T21:38:00.866Z,67.40
2019-02-02T21:40:30.661Z,82.97
2019-02-02T21:42:58.574Z,94.07
2019-02-02T21:45:26.498Z,101.30
2019-02-02T21:48:03.367Z,83.10
2019-02-02T21:50:31.326Z,76.13
2019-02-02T21:52:59.319Z,104.83
2019-02-02T21:55:28.920Z,86.97
2019-02-02T21:57:56.909Z,144.80
2019-02-02T22:00:30.589Z,92.93
2019-02-02T22:02:58.614Z,83.53
2019-02-02T22:05:26.510Z,88.00
2019-02-02T22:07:54.563Z,98.47
2019-02-02T22:10:22.531Z,84.50
2019-02-02T22:12:52.768Z,78.27
2019-02-02T22:15:21.836Z,70.13
2019-02-02T22:17:49.926Z,62.20
2019-02-02T22:20:18.553Z,57.73
2019-02-02T22:22:47.437Z,53.17
2019-02-02T22:25:18.314Z,48.73
2019-02-02T22:27:46.300Z,58.27
2019-02-02T22:30:16.847Z,77.13
2019-02-02T22:32:44.861Z,54.50
2019-02-02T22:35:12.865Z,50.73
2019-02-02T22:37:41.253Z,47.63
2019-02-02T22:40:12.127Z,46.97
2019-02-02T22:42:40.253Z,55.12
2019-02-02T22:45:11.610Z,48.25
2019-02-02T22:47:39.680Z,44.27
2019-02-02T22:50:10.970Z,41.00
2019-02-02T22:52:39.563Z,40.87
2019-02-02T22:55:08.547Z,37.13
2019-02-02T22:57:36.852Z,38.57
2019-02-02T23:00:24.003Z,38.57
2019-02-02T23:02:52.025Z,36.87
2019-02-02T23:05:52.451Z,40.30
2019-02-02T23:08:35.680Z,42.43
2019-02-02T23:11:25.884Z,37.67
2019-02-02T23:14:25.665Z,36.33
2019-02-02T23:16:53.667Z,35.50
2019-02-02T23:19:21.677Z,32.67
2019-02-02T23:21:49.572Z,30.30
2019-02-02T23:24:17.562Z,29.43
2019-02-02T23:26:45.377Z,30.37
2019-02-02T23:29:13.358Z,30.83
2019-02-02T23:31:41.374Z,29.00
2019-02-02T23:34:10.659Z,30.87
2019-02-02T23:36:50.534Z,30.68
2019-02-02T23:39:09.107Z,31.02
2019-02-02T23:41:38.082Z,28.83
2019-02-02T23:44:05.928Z,30.63
2019-02-02T23:46:34.003Z,28.90
2019-02-02T23:49:02.030Z,31.83
2019-02-02T23:51:29.910Z,30.40
2019-02-02T23:53:57.772Z,32.53
2019-02-02T23:56:27.800Z,28.35
2019-02-02T23:58:55.763Z,31.27
